Time;durP1;ratioP1;P1;durP2;ratioP2;P2;SDS_P1;SDS_P2;PMS_P1;PMS_P2;Temp;Humidity;BMP_temperature;BMP_pressure;BME280_temperature;BME280_humidity;BME280_pressure;Samples;Min_cycle;Max_cycle;Signal;HPM_P1;HPM_P2
2022/10/29 00:00:28;;;;;;;15.82;9.93;;;;;;;12.90;100.00;100118.69;4959438;28;20026;-92
2022/10/29 00:02:54;;;;;;;18.67;11.25;;;;;;;12.92;100.00;100124.66;4975257;28;20037;-91
2022/10/29 00:05:19;;;;;;;24.45;11.63;;;;;;;12.93;100.00;100126.34;4959292;28;20027;-92
2022/10/29 00:07:44;;;;;;;23.77;12.43;;;;;;;12.91;100.00;100129.97;4959104;28;20085;-92
2022/10/29 00:10:10;;;;;;;32.80;13.35;;;;;;;12.85;100.00;100135.50;4974944;28;20434;-92
2022/10/29 00:12:35;;;;;;;18.35;10.70;;;;;;;12.81;100.00;100129.59;4959172;28;20477;-91
2022/10/29 00:15:02;;;;;;;17.10;10.35;;;;;;;12.78;100.00;100132.34;4958989;28;20033;-91
2022/10/29 00:17:27;;;;;;;20.10;11.00;;;;;;;12.75;100.00;100132.47;4959141;28;20038;-91
2022/10/29 00:19:52;;;;;;;22.63;11.23;;;;;;;12.73;100.00;100127.34;4973580;28;20399;-91
2022/10/29 00:22:18;;;;;;;19.05;10.90;;;;;;;12.72;100.00;100125.66;4957799;28;20730;-92
2022/10/29 00:24:43;;;;;;;21.42;11.00;;;;;;;12.74;100.00;100126.41;4957685;28;20684;-91
2022/10/29 00:27:09;;;;;;;19.17;11.93;;;;;;;12.74;100.00;100120.34;4957289;28;20041;-91
2022/10/29 00:29:34;;;;;;;23.80;12.07;;;;;;;12.77;100.00;100125.44;4957458;28;20096;-91
2022/10/29 00:31:59;;;;;;;22.80;12.05;;;;;;;12.73;100.00;100122.13;4957017;28;20030;-92
2022/10/29 00:34:25;;;;;;;24.30;13.43;;;;;;;12.79;100.00;100120.97;4957222;28;20129;-92
2022/10/29 00:36:50;;;;;;;26.25;14.00;;;;;;;12.84;100.00;100129.41;4957481;28;20085;-91
2022/10/29 00:39:16;;;;;;;23.45;12.68;;;;;;;12.81;100.00;100110.41;4956905;28;20129;-92
2022/10/29 00:41:42;;;;;;;24.70;13.00;;;;;;;12.75;100.00;100093.28;4957049;28;20113;-93
2022/10/29 00:44:13;;;;;;;26.55;12.43;;;;;;;12.87;100.00;100117.97;4956980;28;20207;-92
2022/10/29 00:46:42;;;;;;;21.88;11.85;;;;;;;12.88;100.00;100117.06;4957029;28;20523;-92
2022/10/29 00:49:09;;;;;;;21.17;12.63;;;;;;;12.88;100.00;100124.91;4957199;28;20041;-92
2022/10/29 00:51:35;;;;;;;22.70;13.02;;;;;;;12.91;100.00;100128.22;4958014;28;20553;-90
2022/10/29 00:54:05;;;;;;;20.30;12.02;;;;;;;12.82;100.00;100106.91;4958042;28;20050;-90
2022/10/29 00:56:35;;;;;;;23.05;12.13;;;;;;;12.87;100.00;100117.97;4973137;28;20700;-89
2022/10/29 00:59:01;;;;;;;18.55;10.98;;;;;;;12.92;100.00;100132.50;4957018;28;20131;-91
2022/10/29 01:01:27;;;;;;;20.77;10.80;;;;;;;12.95;100.00;100123.69;4956822;28;20109;-90
2022/10/29 01:03:54;;;;;;;15.88;10.13;;;;;;;12.94;100.00;100128.06;4953528;29;20491;-90
2022/10/29 01:06:22;;;;;;;18.35;10.82;;;;;;;12.97;100.00;100125.28;4953383;29;20035;-90
2022/10/29 01:08:47;;;;;;;19.27;11.48;;;;;;;13.00;100.00;100129.53;4934326;29;20055;-90
2022/10/29 01:11:27;;;;;;;17.42;10.88;;;;;;;13.04;100.00;100123.22;4934253;29;20364;-90
2022/10/29 01:14:11;;;;;;;18.25;10.70;;;;;;;13.06;100.00;100123.16;4934329;29;20103;-89
2022/10/29 01:16:45;;;;;;;17.77;10.43;;;;;;;13.07;100.00;100130.94;4934590;29;20042;-91
2022/10/29 01:19:13;;;;;;;20.05;11.77;;;;;;;13.09;100.00;100117.78;4934071;29;20040;-91
2022/10/29 01:21:57;;;;;;;21.08;11.75;;;;;;;13.11;100.00;100124.63;4934350;29;20532;-90
2022/10/29 01:24:50;;;;;;;15.52;11.07;;;;;;;13.04;100.00;100112.78;4934036;29;20662;-91
2022/10/29 01:28:00;;;;;;;20.17;11.77;;;;;;;13.11;100.00;100124.63;4926463;29;20380;-90
2022/10/29 01:31:13;;;;;;;15.97;10.17;;;;;;;13.11;100.00;100113.31;4896473;29;20042;-90
2022/10/29 01:33:59;;;;;;;18.65;11.32;;;;;;;13.06;100.00;100115.28;4858851;29;20069;-90
2022/10/29 01:36:40;;;;;;;14.88;10.30;;;;;;;13.11;100.00;100126.41;4877510;29;20533;-90
2022/10/29 01:39:33;;;;;;;18.63;10.43;;;;;;;13.00;100.00;100119.06;4861729;29;20116;-90
2022/10/29 01:42:21;;;;;;;14.80;10.45;;;;;;;13.02;100.00;100126.81;4861696;29;20033;-90
2022/10/29 01:44:59;;;;;;;14.82;10.40;;;;;;;13.01;100.00;100135.59;4877431;29;20124;-89
2022/10/29 01:47:30;;;;;;;17.05;10.15;;;;;;;12.96;100.00;100125.38;4861730;29;20429;-90
2022/10/29 01:50:01;;;;;;;17.67;11.02;;;;;;;12.99;100.00;100135.69;4861769;29;20154;-90
2022/10/29 01:52:28;;;;;;;;;;;;;;;13.01;100.00;100136.44;4862025;29;20037;-90
2022/10/29 01:54:53;;;;;;;15.07;9.75;;;;;;;13.02;100.00;100137.28;4861339;29;19923;-90
2022/10/29 01:57:37;;;;;;;16.63;11.15;;;;;;;13.02;100.00;100127.72;4861563;29;20040;-90
2022/10/29 02:00:09;;;;;;;16.13;10.27;;;;;;;13.04;100.00;100136.31;4861376;29;20045;-89
2022/10/29 02:02:52;;;;;;;20.30;11.32;;;;;;;12.98;100.00;100110.47;4861336;29;20477;-89
2022/10/29 02:05:25;;;;;;;16.52;9.05;;;;;;;13.04;100.00;100117.16;4883805;29;20040;-90
2022/10/29 02:07:59;;;;;;;15.68;9.90;;;;;;;13.04;100.00;100112.78;4914677;29;20525;-90
2022/10/29 02:10:37;;;;;;;15.63;10.40;;;;;;;13.02;100.00;100108.53;4952222;28;20053;-90
2022/10/29 02:13:03;;;;;;;14.63;9.48;;;;;;;12.92;100.00;100098.53;4973068;28;20037;-92
2022/10/29 02:15:32;;;;;;;15.13;9.30;;;;;;;12.94;100.00;100104.53;4972949;28;20034;-91
2022/10/29 02:18:03;;;;;;;14.73;10.10;;;;;;;12.94;100.00;100116.78;4971793;28;20123;-91
2022/10/29 02:20:29;;;;;;;19.20;10.50;;;;;;;12.91;100.00;100104.69;4955430;28;20070;-91
2022/10/29 02:22:55;;;;;;;22.52;11.75;;;;;;;12.90;100.00;100107.38;4955582;28;20094;-90
2022/10/29 02:25:21;;;;;;;19.73;11.40;;;;;;;12.94;100.00;100103.69;4955432;28;20485;-89
2022/10/29 02:27:47;;;;;;;14.90;10.13;;;;;;;12.94;100.00;100098.47;4952183;29;20042;-89
2022/10/29 02:30:12;;;;;;;16.17;10.43;;;;;;;12.94;100.00;100094.09;4952105;29;20035;-90
2022/10/29 02:32:38;;;;;;;17.75;10.27;;;;;;;12.97;100.00;100096.53;4936112;29;20031;-90
2022/10/29 02:35:04;;;;;;;16.60;9.73;;;;;;;12.95;100.00;100087.09;4936016;29;20031;-91
2022/10/29 02:37:30;;;;;;;18.48;10.50;;;;;;;12.82;100.00;100067.69;4951896;29;20035;-91
2022/10/29 02:39:55;;;;;;;19.48;10.80;;;;;;;12.92;100.00;100082.00;4936111;29;20074;-89
2022/10/29 02:42:21;;;;;;;14.27;9.15;;;;;;;12.92;100.00;100095.06;4951893;29;20035;-90
2022/10/29 02:44:46;;;;;;;18.02;9.60;;;;;;;12.87;100.00;100103.13;4935988;29;20102;-90
2022/10/29 02:47:12;;;;;;;18.33;10.20;;;;;;;12.82;100.00;100093.84;4951803;29;20065;-90
2022/10/29 02:49:37;;;;;;;31.48;14.98;;;;;;;12.76;100.00;100094.13;4936076;29;20498;-90
2022/10/29 02:52:03;;;;;;;37.50;16.08;;;;;;;12.73;100.00;100100.34;4951698;29;20114;-91
2022/10/29 02:54:28;;;;;;;22.65;12.43;;;;;;;12.64;100.00;100096.44;4935639;29;20047;-90
2022/10/29 02:56:54;;;;;;;23.70;12.88;;;;;;;12.56;100.00;100089.88;4951874;29;20038;-90
2022/10/29 02:59:19;;;;;;;24.55;12.15;;;;;;;12.54;100.00;100097.75;4955639;28;20035;-89
2022/10/29 03:01:45;;;;;;;28.35;14.27;;;;;;;12.48;100.00;100098.91;4955859;28;20026;-90
2022/10/29 03:04:10;;;;;;;27.98;15.10;;;;;;;12.46;100.00;100115.56;4955572;28;20022;-90
2022/10/29 03:06:36;;;;;;;23.70;12.35;;;;;;;12.41;100.00;100113.16;4972200;28;20031;-88
2022/10/29 03:09:02;;;;;;;20.85;11.80;;;;;;;12.40;100.00;100108.88;4956248;28;20033;-91
2022/10/29 03:11:28;;;;;;;31.67;14.30;;;;;;;12.35;100.00;100115.25;4956506;28;20027;-91
2022/10/29 03:13:53;;;;;;;21.55;12.85;;;;;;;12.31;100.00;100111.91;4956513;28;20037;-91
2022/10/29 03:16:19;;;;;;;19.25;12.32;;;;;;;12.28;100.00;100117.28;4955878;28;20061;-91
2022/10/29 03:18:44;;;;;;;27.20;14.30;;;;;;;12.23;100.00;100109.66;4956234;28;20034;-92
2022/10/29 03:21:10;;;;;;;28.33;14.35;;;;;;;12.17;100.00;100109.06;4956335;28;20459;-90
2022/10/29 03:23:35;;;;;;;22.67;13.50;;;;;;;12.17;100.00;100117.75;4956112;28;20101;-91
2022/10/29 03:26:01;;;;;;;20.70;12.55;;;;;;;12.10;100.00;100100.69;4956213;28;20045;-90
2022/10/29 03:28:27;;;;;;;24.05;13.27;;;;;;;12.09;100.00;100113.81;4955921;28;20022;-90
2022/10/29 03:30:52;;;;;;;19.20;12.38;;;;;;;12.06;100.00;100111.34;4956042;28;20474;-90
2022/10/29 03:33:18;;;;;;;18.60;11.25;;;;;;;12.01;100.00;100108.94;4972169;28;20038;-90
2022/10/29 03:35:43;;;;;;;17.55;10.80;;;;;;;11.97;100.00;100118.69;4956223;28;20041;-91
2022/10/29 03:38:09;;;;;;;17.15;11.02;;;;;;;11.95;100.00;100123.09;4955737;28;20022;-91
2022/10/29 03:40:34;;;;;;;17.15;10.50;;;;;;;11.92;100.00;100122.38;4956052;28;20081;-90
2022/10/29 03:43:00;;;;;;;15.55;9.40;;;;;;;11.90;100.00;100113.78;4956148;28;20023;-91
2022/10/29 03:45:25;;;;;;;15.95;9.60;;;;;;;11.88;100.00;100123.44;4971988;28;20027;-91
2022/10/29 03:47:51;;;;;;;16.05;9.40;;;;;;;11.85;100.00;100121.00;4956204;28;20019;-91
2022/10/29 03:50:16;;;;;;;15.35;10.15;;;;;;;11.79;100.00;100131.66;4971819;28;20462;-90
2022/10/29 03:52:42;;;;;;;15.13;9.82;;;;;;;11.75;100.00;100130.94;4955936;28;20023;-90
2022/10/29 03:55:07;;;;;;;14.85;9.82;;;;;;;11.68;100.00;100137.34;4952440;29;20138;-90
2022/10/29 03:57:33;;;;;;;18.42;10.32;;;;;;;11.70;100.00;100136.34;4936927;29;20109;-90
2022/10/29 03:59:59;;;;;;;15.82;10.25;;;;;;;11.68;100.00;100134.75;4936890;29;20027;-90
2022/10/29 04:02:25;;;;;;;20.73;11.95;;;;;;;11.64;100.00;100136.63;4952587;29;20020;-91
2022/10/29 04:04:51;;;;;;;13.55;10.15;;;;;;;11.63;100.00;100141.91;4936830;29;20027;-92
2022/10/29 04:07:16;;;;;;;12.93;9.95;;;;;;;11.60;100.00;100145.50;4936482;29;20110;-91
2022/10/29 04:09:42;;;;;;;17.35;10.82;;;;;;;11.58;100.00;100149.94;4952647;29;20147;-92
2022/10/29 04:12:08;;;;;;;16.42;12.00;;;;;;;11.57;100.00;100150.84;4936284;29;20019;-91
2022/10/29 04:14:33;;;;;;;20.80;11.45;;;;;;;11.54;100.00;100150.97;4938617;29;20419;-91
2022/10/29 04:16:59;;;;;;;24.25;13.93;;;;;;;11.53;100.00;100151.03;4940091;29;20026;-91
2022/10/29 04:19:24;;;;;;;24.98;13.82;;;;;;;11.49;100.00;100156.38;4939742;29;20475;-92
2022/10/29 04:21:50;;;;;;;36.30;17.55;;;;;;;11.49;100.00;100159.00;4939858;29;20030;-91
2022/10/29 04:24:15;;;;;;;31.08;15.68;;;;;;;11.46;100.00;100156.53;4940310;29;20031;-91
2022/10/29 04:26:42;;;;;;;37.90;17.05;;;;;;;11.45;100.00;100160.03;4940279;29;20031;-92
2022/10/29 04:29:07;;;;;;;27.27;15.70;;;;;;;11.43;100.00;100172.31;4940111;29;20104;-93
2022/10/29 04:31:33;;;;;;;24.08;14.65;;;;;;;11.43;100.00;100179.28;4939913;29;20040;-92
2022/10/29 04:33:58;;;;;;;24.73;16.10;;;;;;;11.43;100.00;100182.75;4940163;29;20027;-92
2022/10/29 04:36:24;;;;;;;18.63;13.80;;;;;;;11.41;100.00;100181.94;4939751;29;20031;-90
2022/10/29 04:38:49;;;;;;;20.63;13.13;;;;;;;11.41;100.00;100175.88;4951710;29;20039;-91
2022/10/29 04:41:15;;;;;;;22.70;12.77;;;;;;;11.40;100.00;100176.78;4954498;29;20395;-92
2022/10/29 04:43:40;;;;;;;17.17;12.50;;;;;;;11.37;100.00;100175.16;4938648;29;20082;-92
2022/10/29 04:46:06;;;;;;;16.77;11.52;;;;;;;11.38;100.00;100178.63;4954708;29;20035;-92
2022/10/29 04:48:32;;;;;;;23.23;12.23;;;;;;;11.37;100.00;100179.53;4900041;29;20139;-92
2022/10/29 04:51:23;;;;;;;14.90;11.50;;;;;;;11.34;100.00;100179.66;4897228;29;20524;-92
2022/10/29 04:53:48;;;;;;;15.30;10.65;;;;;;;11.33;100.00;100172.72;4889915;29;20040;-93
2022/10/29 04:56:34;;;;;;;16.88;10.60;;;;;;;11.31;100.00;100179.78;4883981;29;20045;-93
2022/10/29 04:58:59;;;;;;;20.67;11.15;;;;;;;11.29;100.00;100176.38;4897252;29;20496;-92
2022/10/29 05:01:25;;;;;;;19.42;11.23;;;;;;;11.26;100.00;100179.97;4897181;29;20040;-91
2022/10/29 05:03:50;;;;;;;17.70;10.68;;;;;;;11.21;100.00;100177.56;4897195;29;20094;-92
2022/10/29 05:06:16;;;;;;;15.70;11.35;;;;;;;11.22;100.00;100186.22;4897124;29;20036;-91
2022/10/29 05:08:41;;;;;;;16.67;10.55;;;;;;;11.20;100.00;100182.81;4897223;29;20132;-92
2022/10/29 05:11:07;;;;;;;15.23;10.57;;;;;;;11.19;100.00;100188.94;4897163;29;20135;-91
2022/10/29 05:13:33;;;;;;;14.70;10.13;;;;;;;11.17;100.00;100198.63;4896691;29;20044;-91
2022/10/29 05:15:58;;;;;;;19.27;10.90;;;;;;;11.14;100.00;100191.75;4896851;29;20036;-93
2022/10/29 05:18:24;;;;;;;18.05;11.38;;;;;;;11.11;100.00;100191.88;4897530;29;20055;-92
2022/10/29 05:20:56;;;;;;;18.77;11.02;;;;;;;11.10;100.00;100197.16;4915800;29;20082;-91
2022/10/29 05:23:22;;;;;;;20.02;11.77;;;;;;;11.08;100.00;100189.41;4860236;29;20535;-91
2022/10/29 05:25:50;;;;;;;19.63;11.77;;;;;;;11.09;100.00;100203.28;4876890;29;20040;-91
2022/10/29 05:28:18;;;;;;;16.90;11.38;;;;;;;11.07;100.00;100205.09;4894985;29;20448;-89
2022/10/29 05:30:45;;;;;;;16.35;11.43;;;;;;;11.08;100.00;100209.38;4915086;29;20488;-89
2022/10/29 05:33:14;;;;;;;14.07;10.27;;;;;;;11.06;100.00;100206.84;4915101;29;20037;-89
2022/10/29 05:35:39;;;;;;;15.38;10.63;;;;;;;11.05;100.00;100212.13;4899449;29;20432;-89
2022/10/29 05:38:05;;;;;;;17.35;11.48;;;;;;;11.04;100.00;100210.41;4899283;29;20036;-89
2022/10/29 05:40:31;;;;;;;21.73;11.38;;;;;;;11.05;100.00;100210.38;4914652;29;20036;-89
2022/10/29 05:42:56;;;;;;;16.65;11.02;;;;;;;11.03;100.00;100220.00;4914816;29;20071;-90
2022/10/29 05:45:22;;;;;;;19.20;11.80;;;;;;;10.99;100.00;100216.66;4914629;29;20067;-89
2022/10/29 05:47:47;;;;;;;16.30;11.32;;;;;;;10.95;100.00;100203.81;4914655;29;20480;-89
2022/10/29 05:50:13;;;;;;;15.65;11.13;;;;;;;10.98;100.00;100217.56;4914719;29;20071;-89
2022/10/29 05:52:39;;;;;;;15.18;11.20;;;;;;;11.03;100.00;100216.53;4930502;29;20486;-89
2022/10/29 05:55:05;;;;;;;17.60;10.48;;;;;;;11.04;100.00;100223.44;4948475;29;20051;-89
2022/10/29 05:57:30;;;;;;;18.92;11.45;;;;;;;10.93;100.00;100203.88;4952605;28;20089;-88
2022/10/29 05:59:56;;;;;;;18.52;11.63;;;;;;;11.08;100.00;100218.06;4957065;28;20445;-89
2022/10/29 06:02:21;;;;;;;25.58;12.15;;;;;;;11.14;100.00;100220.44;4956856;28;20047;-89
2022/10/29 06:04:47;;;;;;;20.73;12.00;;;;;;;11.23;100.00;100225.28;4957196;28;20057;-88
2022/10/29 06:07:12;;;;;;;16.42;10.50;;;;;;;11.32;100.00;100228.41;4957112;28;20046;-89
2022/10/29 06:09:37;;;;;;;15.13;11.57;;;;;;;11.37;100.00;100218.63;4974377;28;20031;-89
2022/10/29 06:12:03;;;;;;;20.13;12.77;;;;;;;11.41;100.00;100213.22;4956992;28;20054;-90
2022/10/29 06:14:28;;;;;;;19.73;14.10;;;;;;;11.54;100.00;100216.19;4972536;28;20030;-89
2022/10/29 06:16:54;;;;;;;17.80;12.57;;;;;;;11.67;100.00;100220.00;4957110;28;20057;-90
2022/10/29 06:19:19;;;;;;;20.83;13.50;;;;;;;11.78;100.00;100223.91;4972806;28;20096;-89
2022/10/29 06:21:44;;;;;;;24.30;13.93;;;;;;;11.81;100.00;100214.19;4972878;28;20033;-89
2022/10/29 06:24:11;;;;;;;23.67;13.10;;;;;;;12.00;100.00;100219.50;4972896;28;20033;-89
2022/10/29 06:26:36;;;;;;;46.85;24.95;;;;;;;12.14;100.00;100224.97;4973763;28;20027;-89
2022/10/29 06:29:03;;;;;;;69.40;32.25;;;;;;;12.26;100.00;100225.34;4932775;29;20042;-90
2022/10/29 06:31:28;;;;;;;43.88;22.63;;;;;;;12.30;100.00;100214.69;4932724;29;20039;-89
2022/10/29 06:33:54;;;;;;;75.03;36.53;;;;;;;12.46;100.00;100230.53;4917136;29;20099;-89
2022/10/29 06:36:20;;;;;;;88.00;42.63;;;;;;;12.54;100.00;100232.78;4916747;29;20028;-90
2022/10/29 06:38:45;;;;;;;70.38;35.65;;;;;;;12.60;100.00;100229.88;4917084;29;20035;-89
2022/10/29 06:41:11;;;;;;;66.45;33.15;;;;;;;12.64;100.00;100229.69;4933063;29;20148;-89
2022/10/29 06:43:36;;;;;;;75.72;36.42;;;;;;;12.68;100.00;100238.22;4916574;29;20166;-89
2022/10/29 06:46:02;;;;;;;63.45;33.30;;;;;;;12.73;100.00;100239.72;4917087;29;20039;-90
2022/10/29 06:48:27;;;;;;;70.55;35.45;;;;;;;12.77;100.00;100235.22;4916628;29;20043;-90
2022/10/29 06:50:52;;;;;;;82.57;37.95;;;;;;;12.88;100.00;100246.00;4916851;29;20067;-90
2022/10/29 06:53:18;;;;;;;70.60;37.10;;;;;;;12.94;100.00;100245.72;4916659;29;20057;-89
2022/10/29 06:55:44;;;;;;;76.32;37.40;;;;;;;13.12;100.00;100241.38;4913673;29;20042;-90
2022/10/29 06:58:11;;;;;;;70.78;37.25;;;;;;;13.36;100.00;100247.25;4913669;29;20058;-89
2022/10/29 07:00:37;;;;;;;65.78;32.20;;;;;;;13.69;100.00;100233.41;4941657;29;20035;-89
2022/10/29 07:03:03;;;;;;;92.55;39.83;;;;;;;14.18;100.00;100233.53;4935926;29;20542;-89
2022/10/29 07:05:29;;;;;;;175.52;64.03;;;;;;;14.47;100.00;100234.63;4951606;29;20067;-88
2022/10/29 07:07:56;;;;;;;294.15;109.63;;;;;;;14.59;100.00;100239.22;4951593;29;20117;-89
2022/10/29 07:10:22;;;;;;;217.68;79.82;;;;;;;14.73;100.00;100241.94;4951323;29;20031;-89
2022/10/29 07:12:47;;;;;;;162.40;57.78;;;;;;;14.76;100.00;100237.47;4951723;29;20031;-89
2022/10/29 07:15:12;;;;;;;122.70;46.88;;;;;;;14.80;100.00;100237.22;4932445;29;20395;-89
2022/10/29 07:17:38;;;;;;;66.43;28.48;;;;;;;14.74;100.00;100253.28;4916452;29;20692;-90
2022/10/29 07:20:04;;;;;;;52.97;22.98;;;;;;;14.56;100.00;100238.56;4916516;29;20071;-90
2022/10/29 07:22:30;;;;;;;54.10;22.58;;;;;;;14.52;100.00;100248.34;4932165;29;20111;-89
2022/10/29 07:24:56;;;;;;;56.88;22.98;;;;;;;14.45;100.00;100249.56;4932992;29;20510;-89
2022/10/29 07:27:21;;;;;;;62.50;22.08;;;;;;;14.36;100.00;100250.06;4935306;29;20075;-89
2022/10/29 07:29:47;;;;;;;51.58;22.90;;;;;;;14.28;100.00;100250.44;4935649;29;20095;-89
2022/10/29 07:32:12;;;;;;;47.20;19.33;;;;;;;14.16;100.00;100240.63;4951844;29;20035;-90
2022/10/29 07:34:37;;;;;;;41.83;18.50;;;;;;;14.17;100.00;100248.41;4894286;29;20068;-90
2022/10/29 07:37:03;;;;;;;29.15;14.80;;;;;;;14.17;100.00;100247.56;4879302;29;20153;-89
2022/10/29 07:39:28;;;;;;;25.25;14.02;;;;;;;14.13;100.00;100252.09;4878719;29;20124;-90
2022/10/29 07:41:54;;;;;;;23.80;13.85;;;;;;;14.06;100.00;100240.25;4894689;29;20044;-90
2022/10/29 07:44:19;;;;;;;27.80;14.07;;;;;;;14.11;100.00;100247.84;4894357;29;20060;-90
2022/10/29 07:46:44;;;;;;;24.33;13.73;;;;;;;14.09;100.00;100257.59;4907682;29;20304;-90
2022/10/29 07:49:10;;;;;;;23.58;14.40;;;;;;;14.10;100.00;100244.41;4914775;29;20028;-91
2022/10/29 07:51:35;;;;;;;21.30;13.13;;;;;;;14.18;100.00;100249.25;4917002;29;20032;-90
2022/10/29 07:54:01;;;;;;;22.15;13.00;;;;;;;14.20;100.00;100247.41;4916954;29;20048;-90
2022/10/29 07:56:26;;;;;;;24.00;14.05;;;;;;;14.32;100.00;100253.75;4916827;29;20056;-91
2022/10/29 07:58:52;;;;;;;24.23;14.45;;;;;;;14.37;100.00;100254.38;4917217;29;20032;-90
2022/10/29 08:01:17;;;;;;;21.20;13.20;;;;;;;14.41;100.00;100248.91;4901113;29;20052;-90
2022/10/29 08:03:43;;;;;;;15.75;10.15;;;;;;;14.49;100.00;100251.13;4900581;29;20032;-91
2022/10/29 08:06:09;;;;;;;17.02;11.23;;;;;;;14.50;100.00;100236.28;4897749;29;20036;-91
2022/10/29 08:08:34;;;;;;;16.77;11.75;;;;;;;14.58;100.00;100250.66;4897531;29;20201;-90
2022/10/29 08:11:01;;;;;;;19.27;12.05;;;;;;;14.60;100.00;100243.53;4899826;29;20043;-91
2022/10/29 08:13:27;;;;;;;20.80;11.63;;;;;;;14.66;100.00;100243.22;4935293;29;20031;-90
2022/10/29 08:15:52;;;;;;;18.60;11.68;;;;;;;14.84;100.00;100241.38;4935444;29;20035;-90
2022/10/29 08:18:18;;;;;;;18.48;11.10;;;;;;;15.06;100.00;100235.78;4926865;29;20556;-86
2022/10/29 08:20:44;;;;;;;18.55;10.65;;;;;;;15.38;100.00;100252.34;4897223;29;20492;-90
2022/10/29 08:23:09;;;;;;;19.50;10.40;;;;;;;15.67;100.00;100261.22;4897372;29;20028;-87
2022/10/29 08:25:40;;;;;;;17.05;10.68;;;;;;;15.97;100.00;100257.72;4897133;29;20040;-87
2022/10/29 08:28:07;;;;;;;22.17;11.70;;;;;;;16.27;99.09;100269.97;4897401;29;20033;-87
2022/10/29 08:30:33;;;;;;;17.17;10.50;;;;;;;16.44;98.46;100265.38;4912834;29;20497;-87
2022/10/29 08:32:59;;;;;;;16.90;9.70;;;;;;;16.60;98.01;100270.53;4897377;29;20039;-88
2022/10/29 08:35:25;;;;;;;14.77;9.32;;;;;;;16.75;96.92;100267.94;4897326;29;20116;-87
2022/10/29 08:37:50;;;;;;;13.82;9.23;;;;;;;16.70;96.74;100242.72;4942566;29;20138;-88
2022/10/29 08:40:22;;;;;;;14.40;9.15;;;;;;;16.84;96.58;100268.19;4938170;29;20034;-89
2022/10/29 08:42:57;;;;;;;13.18;8.60;;;;;;;16.77;96.82;100263.41;4937881;29;20039;-90
2022/10/29 08:45:33;;;;;;;16.13;8.23;;;;;;;16.71;97.09;100275.13;4954173;29;20051;-90
2022/10/29 08:48:20;;;;;;;12.88;7.72;;;;;;;16.62;97.61;100273.91;4939369;29;20122;-91
2022/10/29 08:50:52;;;;;;;13.30;8.02;;;;;;;16.48;98.27;100262.56;4955184;29;20125;-90
2022/10/29 08:53:26;;;;;;;17.85;9.02;;;;;;;16.34;98.67;100263.38;4934972;29;20088;-90
2022/10/29 08:55:51;;;;;;;14.95;8.10;;;;;;;16.43;98.71;100273.34;4936427;29;20019;-90
2022/10/29 08:58:29;;;;;;;13.30;8.52;;;;;;;16.49;98.67;100272.97;4936194;29;20051;-90
2022/10/29 09:00:56;;;;;;;15.27;8.23;;;;;;;16.56;98.76;100270.78;4934791;29;20498;-91
2022/10/29 09:03:24;;;;;;;11.02;8.27;;;;;;;16.64;98.59;100273.81;4935694;29;20027;-90
2022/10/29 09:06:38;;;;;;;12.65;7.68;;;;;;;16.72;98.51;100279.44;4935732;29;20110;-90
2022/10/29 09:09:35;;;;;;;15.50;8.20;;;;;;;16.80;98.64;100273.72;4877932;29;20037;-91
2022/10/29 09:12:22;;;;;;;15.63;7.80;;;;;;;16.88;98.45;100272.31;4859451;29;20459;-91
2022/10/29 09:15:06;;;;;;;16.23;7.68;;;;;;;16.96;98.45;100277.09;4877700;29;20457;-91
2022/10/29 09:17:51;;;;;;;14.63;7.43;;;;;;;17.06;98.10;100283.47;4877841;29;20108;-88
2022/10/29 09:20:32;;;;;;;16.38;7.28;;;;;;;17.14;97.65;100288.25;4877829;29;20041;-88
2022/10/29 09:23:09;;;;;;;15.80;7.28;;;;;;;17.21;97.53;100289.56;4877834;29;20032;-87
2022/10/29 09:26:03;;;;;;;17.98;7.85;;;;;;;17.28;97.13;100290.84;4877190;29;20052;-86
2022/10/29 09:28:59;;;;;;;18.55;7.65;;;;;;;17.35;97.12;100278.13;4858824;29;20038;-87
2022/10/29 09:31:41;;;;;;;16.80;7.22;;;;;;;17.32;97.25;100266.00;4859205;29;20052;-86
2022/10/29 09:34:39;;;;;;;11.63;6.65;;;;;;;17.39;97.17;100279.63;4858943;29;20042;-87
2022/10/29 09:37:13;;;;;;;9.82;7.38;;;;;;;17.41;97.34;100278.59;4859192;29;20116;-87
2022/10/29 09:39:41;;;;;;;13.00;6.72;;;;;;;17.46;97.53;100278.28;4869427;29;20079;-87
2022/10/29 09:42:21;;;;;;;14.50;7.20;;;;;;;17.53;96.97;100276.94;4877447;29;20470;-89
2022/10/29 09:44:57;;;;;;;12.63;6.78;;;;;;;17.61;96.79;100271.16;4874091;29;20040;-91
2022/10/29 09:47:27;;;;;;;12.27;6.75;;;;;;;17.64;96.55;100263.88;4914841;29;20087;-89
2022/10/29 09:49:56;;;;;;;14.35;6.72;;;;;;;17.79;96.17;100266.50;4914782;29;20095;-90
2022/10/29 09:52:29;;;;;;;17.17;7.22;;;;;;;17.87;95.66;100259.78;4914904;29;20132;-89
2022/10/29 09:54:57;;;;;;;10.98;6.05;;;;;;;17.92;95.52;100257.66;4912534;29;20058;-89
2022/10/29 09:57:28;;;;;;;12.35;7.15;;;;;;;17.98;94.98;100253.75;4898979;29;20538;-90
2022/10/29 10:00:02;;;;;;;13.68;6.80;;;;;;;17.98;95.24;100261.66;4914313;29;20126;-89
2022/10/29 10:02:41;;;;;;;11.88;6.25;;;;;;;18.04;94.56;100270.97;4914767;29;20028;-89
2022/10/29 10:05:14;;;;;;;16.98;7.03;;;;;;;18.04;94.40;100269.19;4933588;29;20040;-88
2022/10/29 10:07:40;;;;;;;10.50;6.63;;;;;;;18.06;94.28;100269.06;4933457;29;20440;-88
2022/10/29 10:10:19;;;;;;;14.48;6.03;;;;;;;18.08;94.16;100254.84;4933582;29;20036;-88
2022/10/29 10:12:47;;;;;;;14.80;6.70;;;;;;;18.08;93.98;100239.03;4917399;29;20027;-88
2022/10/29 10:15:17;;;;;;;14.18;6.47;;;;;;;18.11;93.86;100251.97;4933549;29;20036;-89
2022/10/29 10:17:57;;;;;;;10.88;6.47;;;;;;;18.13;93.59;100254.53;4932921;29;20030;-89
2022/10/29 10:20:25;;;;;;;11.57;6.45;;;;;;;18.14;93.96;100250.94;4932784;29;20046;-90
2022/10/29 10:22:50;;;;;;;11.93;5.93;;;;;;;18.12;94.05;100243.13;4932596;29;20024;-90
2022/10/29 10:25:39;;;;;;;10.45;6.13;;;;;;;18.21;94.06;100254.84;4936478;29;20118;-89
2022/10/29 10:28:23;;;;;;;11.13;5.72;;;;;;;18.25;94.31;100247.56;4937154;29;20022;-90
2022/10/29 10:31:07;;;;;;;11.05;6.35;;;;;;;18.26;93.62;100236.91;4952726;29;20027;-90
2022/10/29 10:33:36;;;;;;;13.27;6.28;;;;;;;18.36;93.04;100239.75;4952922;29;20019;-91
2022/10/29 10:36:11;;;;;;;12.32;5.88;;;;;;;18.39;92.89;100231.63;4937267;29;20031;-88
2022/10/29 10:38:45;;;;;;;9.98;5.97;;;;;;;18.43;93.24;100235.72;4945017;28;20018;-90
2022/10/29 10:41:13;;;;;;;12.75;6.15;;;;;;;18.45;92.08;100232.03;4959838;28;20544;-88
2022/10/29 10:43:44;;;;;;;14.85;6.10;;;;;;;18.45;92.01;100221.47;4961648;28;20027;-89
2022/10/29 10:46:16;;;;;;;11.20;5.47;;;;;;;18.53;91.71;100233.28;4952458;28;20029;-89
2022/10/29 10:48:42;;;;;;;11.88;5.40;;;;;;;18.53;91.71;100230.66;4962934;28;20027;-89
2022/10/29 10:51:10;;;;;;;8.38;5.60;;;;;;;18.59;91.50;100230.25;4963046;28;20093;-88
2022/10/29 10:53:39;;;;;;;12.88;5.53;;;;;;;18.55;91.64;100226.13;4960662;28;20051;-89
2022/10/29 10:56:05;;;;;;;6.82;5.30;;;;;;;18.65;91.51;100228.00;4976196;28;20056;-89
2022/10/29 10:58:39;;;;;;;8.13;5.50;;;;;;;18.70;91.62;100231.16;4964138;28;20023;-89
2022/10/29 11:01:10;;;;;;;10.25;5.30;;;;;;;18.78;91.04;100221.88;4947944;28;20026;-88
2022/10/29 11:03:44;;;;;;;10.25;5.07;;;;;;;18.84;88.52;100224.94;4980203;28;20113;-89
2022/10/29 11:06:17;;;;;;;10.43;4.93;;;;;;;18.91;88.68;100226.16;4958342;28;20098;-89
2022/10/29 11:08:45;;;;;;;9.82;5.43;;;;;;;18.94;87.74;100223.31;4979209;28;20031;-89
2022/10/29 11:11:21;;;;;;;8.90;4.85;;;;;;;18.99;88.30;100227.41;4975192;28;20027;-90
2022/10/29 11:13:48;;;;;;;12.30;4.78;;;;;;;18.93;87.48;100216.34;4979200;28;20073;-90
2022/10/29 11:16:23;;;;;;;10.40;4.85;;;;;;;18.97;87.36;100219.59;4963546;28;20073;-89